Time;durP1;ratioP1;P1;durP2;ratioP2;P2;SDS_P1;SDS_P2;PMS_P1;PMS_P2;Temp;Humidity;BMP_temperature;BMP_pressure;BME280_temperature;BME280_humidity;BME280_pressure;Samples;Min_cycle;Max_cycle;Signal;HPM_P1;HPM_P2
2023/08/26 00:01:49;;;;;;;202.55;94.03;;;17.30;99.90;;;;;;5012460;28;20037;-64
2023/08/26 00:04:15;;;;;;;133.98;75.97;;;16.80;99.90;;;;;;4995834;28;20049;-64
2023/08/26 00:06:41;;;;;;;174.63;82.07;;;16.50;99.90;;;;;;5011516;28;20057;-65
2023/08/26 00:09:07;;;;;;;176.82;82.75;;;17.00;99.90;;;;;;5011730;28;20056;-65
2023/08/26 00:11:33;;;;;;;141.55;72.32;;;16.50;99.90;;;;;;4967665;28;20044;-65
2023/08/26 00:13:58;;;;;;;137.80;70.60;;;17.00;99.90;;;;;;5012050;28;20667;-64
2023/08/26 00:16:24;;;;;;;156.50;71.32;;;17.30;99.90;;;;;;4996123;28;20045;-64
2023/08/26 00:18:50;;;;;;;156.23;76.47;;;16.50;99.90;;;;;;5012074;28;20037;-64
2023/08/26 00:21:21;;;;;;;159.35;75.50;;;17.00;99.90;;;;;;4969754;28;20063;-65
2023/08/26 00:23:47;;;;;;;179.60;71.93;;;16.30;99.90;;;;;;4972207;28;20033;-65
2023/08/26 00:26:12;;;;;;;150.75;73.28;;;16.90;99.90;;;;;;5029398;28;20045;-65
2023/08/26 00:28:38;;;;;;;141.70;71.32;;;16.50;99.90;;;;;;4968854;28;20876;-65
2023/08/26 00:31:04;;;;;;;130.38;64.75;;;16.20;99.90;;;;;;5011215;28;20106;-65
2023/08/26 00:33:30;;;;;;;178.63;76.38;;;16.10;99.90;;;;;;4995115;28;20415;-66
2023/08/26 00:35:57;;;;;;;173.48;78.43;;;16.10;99.90;;;;;;4996073;28;20575;-65
2023/08/26 00:38:23;;;;;;;121.75;63.45;;;16.20;99.90;;;;;;4998805;28;20131;-66
2023/08/26 00:40:48;;;;;;;100.97;56.30;;;16.10;99.90;;;;;;4998207;28;20237;-65
2023/08/26 00:43:14;;;;;;;96.50;52.88;;;16.00;99.90;;;;;;5016063;28;20071;-65
2023/08/26 00:45:42;;;;;;;73.03;46.35;;;16.20;99.90;;;;;;5034028;28;20032;-65
2023/08/26 00:48:11;;;;;;;61.65;41.10;;;16.70;99.90;;;;;;5033598;28;20033;-65
2023/08/26 00:50:38;;;;;;;54.40;37.85;;;15.90;99.90;;;;;;4999002;28;20130;-65
2023/08/26 00:53:05;;;;;;;48.85;35.72;;;16.20;99.90;;;;;;4998709;28;20131;-66
2023/08/26 00:55:31;;;;;;;55.58;36.55;;;15.80;99.90;;;;;;5014836;28;20223;-65
2023/08/26 00:57:58;;;;;;;58.30;38.67;;;16.30;99.90;;;;;;5002924;28;20652;-66
2023/08/26 01:00:25;;;;;;;55.60;35.30;;;16.40;99.90;;;;;;4999125;28;20068;-66
2023/08/26 01:02:51;;;;;;;47.42;33.10;;;16.30;99.90;;;;;;5032936;28;20033;-66
2023/08/26 01:05:17;;;;;;;47.10;31.80;;;15.60;99.90;;;;;;5014693;28;20048;-66
2023/08/26 01:07:45;;;;;;;47.40;32.40;;;16.10;99.90;;;;;;4982019;28;20045;-66
2023/08/26 01:10:11;;;;;;;42.22;30.23;;;16.30;99.90;;;;;;4997154;28;20045;-66
2023/08/26 01:13:00;;;;;;;49.13;32.72;;;15.80;99.90;;;;;;5033252;28;20406;-66
2023/08/26 01:15:28;;;;;;;42.88;29.67;;;16.10;99.90;;;;;;5032996;28;20653;-65
2023/08/26 01:17:54;;;;;;;39.53;29.05;;;15.50;99.90;;;;;;5014919;28;20041;-66
2023/08/26 01:20:21;;;;;;;34.67;25.30;;;15.40;99.90;;;;;;5015310;28;20048;-65
2023/08/26 01:22:50;;;;;;;33.67;25.60;;;16.10;99.90;;;;;;5015440;28;20053;-65
2023/08/26 01:25:17;;;;;;;32.20;23.95;;;15.30;99.90;;;;;;5014673;28;20545;-66
2023/08/26 01:27:42;;;;;;;32.20;23.63;;;15.80;99.90;;;;;;5014102;28;20121;-65
2023/08/26 01:30:10;;;;;;;29.23;21.98;;;15.60;99.90;;;;;;5014264;28;20128;-66
2023/08/26 01:33:04;;;;;;;24.80;21.40;;;15.70;99.90;;;;;;5013972;28;20130;-66
2023/08/26 01:35:38;;;;;;;25.40;20.60;;;15.70;99.90;;;;;;5014398;28;20351;-66
2023/08/26 01:38:05;;;;;;;28.05;21.45;;;15.20;99.90;;;;;;5012970;28;20271;-64
2023/08/26 01:40:33;;;;;;;22.25;19.25;;;15.80;99.90;;;;;;5033072;28;20037;-64
2023/08/26 01:43:00;;;;;;;26.33;19.40;;;15.70;99.90;;;;;;4997875;28;20465;-64
2023/08/26 01:45:26;;;;;;;23.95;18.23;;;15.70;99.90;;;;;;5014426;28;20302;-64
2023/08/26 01:47:51;;;;;;;22.10;18.10;;;15.20;99.90;;;;;;5013536;28;20471;-64
2023/08/26 01:50:17;;;;;;;20.30;16.35;;;15.20;99.90;;;;;;5013707;28;20048;-64
2023/08/26 01:52:43;;;;;;;19.42;15.07;;;15.60;99.90;;;;;;5013375;28;20166;-64
2023/08/26 01:55:09;;;;;;;16.80;14.75;;;15.50;99.90;;;;;;4997743;28;20507;-64
2023/08/26 01:57:34;;;;;;;19.27;14.50;;;15.60;99.90;;;;;;4981791;28;20056;-65
2023/08/26 02:00:01;;;;;;;18.73;15.93;;;15.60;99.90;;;;;;5014677;28;20178;-65
2023/08/26 02:02:27;;;;;;;20.45;15.23;;;15.00;99.90;;;;;;5014192;28;20697;-65
2023/08/26 02:04:53;;;;;;;16.77;13.52;;;15.40;99.90;;;;;;5014063;28;20525;-65
2023/08/26 02:07:19;;;;;;;18.58;13.52;;;15.10;99.90;;;;;;5014166;28;20064;-64
2023/08/26 02:09:44;;;;;;;15.20;11.93;;;14.80;99.90;;;;;;5014312;28;21884;-65
2023/08/26 02:12:11;;;;;;;16.55;11.82;;;14.90;99.90;;;;;;4997853;28;20084;-66
2023/08/26 02:14:37;;;;;;;14.13;12.63;;;15.40;99.90;;;;;;5014325;28;20098;-65
2023/08/26 02:17:02;;;;;;;14.52;11.82;;;15.00;99.90;;;;;;5013687;28;20426;-65
2023/08/26 02:19:28;;;;;;;15.48;12.48;;;14.90;99.90;;;;;;5008308;28;20033;-65
2023/08/26 02:21:54;;;;;;;17.55;11.00;;;15.00;99.90;;;;;;4997456;28;20049;-65
2023/08/26 02:24:20;;;;;;;12.40;10.95;;;15.30;99.90;;;;;;5012854;28;20511;-64
2023/08/26 02:26:45;;;;;;;15.77;11.05;;;15.20;99.90;;;;;;4997649;28;20044;-65
2023/08/26 02:29:11;;;;;;;17.10;10.50;;;14.70;99.90;;;;;;5013833;28;20607;-66
2023/08/26 02:31:37;;;;;;;11.98;9.57;;;14.70;99.90;;;;;;5013533;28;20219;-65
2023/08/26 02:34:03;;;;;;;13.45;10.35;;;14.60;99.90;;;;;;4996693;28;20406;-65
2023/08/26 02:36:28;;;;;;;12.85;9.55;;;15.00;99.90;;;;;;4997270;28;20205;-65
2023/08/26 02:38:54;;;;;;;12.85;10.13;;;14.50;99.90;;;;;;4996520;28;20342;-65
2023/08/26 02:41:20;;;;;;;14.32;9.82;;;14.90;99.90;;;;;;4997110;28;20068;-65
2023/08/26 02:43:45;;;;;;;15.75;9.63;;;14.80;99.90;;;;;;4997038;28;20044;-66
2023/08/26 02:46:12;;;;;;;14.60;9.75;;;14.40;99.90;;;;;;5013469;28;20497;-67
2023/08/26 02:48:38;;;;;;;11.15;8.40;;;14.40;99.90;;;;;;4997160;28;20041;-66
2023/08/26 02:51:04;;;;;;;13.48;9.77;;;14.50;99.90;;;;;;5012945;28;20235;-66
2023/08/26 02:53:30;;;;;;;13.57;9.48;;;14.00;99.90;;;;;;5012765;28;20147;-66
2023/08/26 02:55:56;;;;;;;10.48;7.97;;;14.10;99.90;;;;;;5012837;28;20398;-66
2023/08/26 02:58:22;;;;;;;9.95;8.60;;;14.00;99.90;;;;;;5012440;28;20470;-65
2023/08/26 03:00:48;;;;;;;12.60;8.60;;;13.80;99.90;;;;;;5012317;28;20032;-65
2023/08/26 03:03:14;;;;;;;11.52;7.70;;;13.80;99.90;;;;;;5009153;28;20042;-66
2023/08/26 03:05:40;;;;;;;12.75;9.70;;;14.10;99.90;;;;;;5008997;28;20056;-66
2023/08/26 03:08:07;;;;;;;14.73;8.32;;;13.80;99.90;;;;;;5008589;28;20334;-66
2023/08/26 03:10:33;;;;;;;12.85;8.05;;;14.00;99.90;;;;;;5010789;28;20557;-65
2023/08/26 03:12:59;;;;;;;10.02;8.52;;;13.70;99.90;;;;;;5010939;28;20033;-66
2023/08/26 03:15:28;;;;;;;13.48;8.48;;;13.90;99.90;;;;;;4993168;28;20463;-66
2023/08/26 03:17:55;;;;;;;10.60;7.70;;;13.50;99.90;;;;;;5009238;28;20041;-67
2023/08/26 03:20:21;;;;;;;13.85;9.55;;;13.90;99.90;;;;;;4992973;28;20679;-65
2023/08/26 03:22:47;;;;;;;10.38;8.40;;;13.90;99.90;;;;;;4992922;28;20048;-66
2023/08/26 03:25:13;;;;;;;8.98;8.00;;;13.80;99.90;;;;;;5009362;28;20365;-65
2023/08/26 03:27:38;;;;;;;13.27;8.70;;;13.60;99.90;;;;;;4993973;28;20371;-66
2023/08/26 03:30:05;;;;;;;9.65;7.80;;;13.80;99.90;;;;;;4977154;28;20048;-66
2023/08/26 03:32:31;;;;;;;13.93;8.60;;;13.70;99.90;;;;;;4992717;28;20281;-66
2023/08/26 03:34:56;;;;;;;13.63;8.65;;;13.30;99.90;;;;;;5009470;28;20037;-65
2023/08/26 03:37:22;;;;;;;11.35;8.90;;;13.40;99.90;;;;;;4992900;28;20045;-65
2023/08/26 03:39:48;;;;;;;10.75;8.13;;;13.20;99.90;;;;;;5010087;28;20060;-66
2023/08/26 03:42:14;;;;;;;13.43;9.20;;;13.50;99.90;;;;;;5007992;28;20333;-65
2023/08/26 03:44:39;;;;;;;12.45;8.60;;;13.20;99.90;;;;;;5009445;28;20434;-65
2023/08/26 03:47:05;;;;;;;12.10;7.63;;;13.10;99.90;;;;;;5008801;28;20041;-64
2023/08/26 03:49:31;;;;;;;10.70;7.63;;;13.30;99.90;;;;;;4973213;28;20052;-64
2023/08/26 03:51:56;;;;;;;9.35;7.55;;;12.90;99.90;;;;;;5010017;28;20045;-67
2023/08/26 03:54:22;;;;;;;9.90;7.40;;;12.80;99.90;;;;;;4959013;28;20051;-64
2023/08/26 03:56:48;;;;;;;13.35;7.68;;;13.10;99.90;;;;;;4991034;28;20054;-65
2023/08/26 03:59:13;;;;;;;11.73;7.72;;;13.20;99.90;;;;;;5010338;28;20068;-64
2023/08/26 04:01:39;;;;;;;9.35;7.30;;;12.90;99.90;;;;;;4992301;28;20111;-65
2023/08/26 04:04:05;;;;;;;9.90;7.57;;;13.00;99.90;;;;;;5008699;28;20463;-65
2023/08/26 04:06:31;;;;;;;11.27;7.68;;;13.10;99.90;;;;;;5009458;28;20049;-64
2023/08/26 04:09:02;;;;;;;13.20;8.80;;;13.10;99.90;;;;;;4992915;28;20045;-65
2023/08/26 04:11:27;;;;;;;12.02;8.02;;;12.80;99.90;;;;;;4996547;28;20042;-66
2023/08/26 04:13:53;;;;;;;10.52;8.90;;;12.80;99.90;;;;;;5013320;28;20099;-65
2023/08/26 04:16:21;;;;;;;10.00;8.30;;;12.80;99.90;;;;;;5013416;28;20048;-65
2023/08/26 04:18:47;;;;;;;13.43;9.02;;;13.10;99.90;;;;;;5013003;28;20172;-66
2023/08/26 04:21:13;;;;;;;9.25;7.63;;;12.80;99.90;;;;;;5012549;28;20503;-65
2023/08/26 04:23:39;;;;;;;12.13;8.20;;;13.00;99.90;;;;;;5012607;28;20185;-66
2023/08/26 04:26:05;;;;;;;14.60;8.50;;;12.80;99.90;;;;;;5012692;28;20585;-65
2023/08/26 04:28:31;;;;;;;9.32;7.72;;;12.70;99.90;;;;;;5013341;28;20492;-65
2023/08/26 04:30:58;;;;;;;7.93;7.13;;;12.90;99.90;;;;;;5014222;28;20045;-65
2023/08/26 04:33:23;;;;;;;12.23;8.68;;;12.70;99.90;;;;;;4994442;28;20045;-66
2023/08/26 04:35:49;;;;;;;10.68;7.57;;;12.60;99.90;;;;;;4984966;28;20368;-65
2023/08/26 04:38:15;;;;;;;13.38;9.02;;;12.60;99.90;;;;;;5012323;28;20045;-65
2023/08/26 04:40:41;;;;;;;13.50;7.80;;;12.90;99.90;;;;;;4971519;28;20116;-67
2023/08/26 04:43:10;;;;;;;10.30;7.72;;;12.90;99.90;;;;;;4995168;28;20049;-66
2023/08/26 04:45:37;;;;;;;10.20;7.97;;;12.90;99.90;;;;;;4994187;28;20042;-66
2023/08/26 04:48:04;;;;;;;12.80;7.75;;;12.70;99.90;;;;;;4979249;28;20095;-66
2023/08/26 04:50:30;;;;;;;9.65;7.57;;;12.70;99.90;;;;;;5012566;28;20751;-66
2023/08/26 04:52:56;;;;;;;7.65;6.88;;;13.00;99.90;;;;;;4995267;28;20051;-66
2023/08/26 04:55:22;;;;;;;9.27;7.05;;;13.10;99.90;;;;;;4996904;28;20136;-66
2023/08/26 04:57:48;;;;;;;12.23;7.30;;;13.10;99.90;;;;;;5012294;28;20353;-66
2023/08/26 05:00:16;;;;;;;9.55;7.97;;;13.00;99.90;;;;;;5011587;28;20351;-66
2023/08/26 05:02:43;;;;;;;10.82;8.02;;;12.90;99.90;;;;;;5010240;28;20046;-65
2023/08/26 05:05:09;;;;;;;16.67;9.18;;;13.10;99.90;;;;;;5010483;28;20053;-66
2023/08/26 05:07:35;;;;;;;13.35;7.78;;;13.00;99.90;;;;;;4994549;28;20048;-65
2023/08/26 05:10:03;;;;;;;10.60;8.35;;;13.20;99.90;;;;;;5011873;28;20050;-66
2023/08/26 05:12:29;;;;;;;11.55;8.23;;;13.50;99.90;;;;;;5011401;28;20045;-65
2023/08/26 05:14:55;;;;;;;8.50;7.35;;;13.60;99.90;;;;;;5011368;28;20042;-65
2023/08/26 05:17:21;;;;;;;10.27;8.43;;;13.60;99.90;;;;;;5002226;28;20750;-67
2023/08/26 05:19:47;;;;;;;12.73;8.82;;;13.40;99.90;;;;;;5011265;28;20524;-64
2023/08/26 05:22:13;;;;;;;12.65;8.40;;;13.50;99.90;;;;;;5010212;28;20068;-64
2023/08/26 05:24:39;;;;;;;8.35;7.15;;;13.90;99.90;;;;;;5012138;28;20045;-64
2023/08/26 05:27:04;;;;;;;7.28;6.57;;;13.70;99.90;;;;;;5009821;28;20804;-65
2023/08/26 05:29:30;;;;;;;11.25;7.47;;;14.00;99.90;;;;;;5002561;28;20080;-65
2023/08/26 05:31:56;;;;;;;11.68;6.88;;;14.00;99.90;;;;;;5011470;28;20088;-65
2023/08/26 05:34:21;;;;;;;9.40;6.90;;;13.90;99.90;;;;;;5011239;28;20045;-66
2023/08/26 05:36:47;;;;;;;11.77;6.82;;;14.00;99.90;;;;;;4994168;28;20471;-65
2023/08/26 05:39:13;;;;;;;12.80;6.70;;;14.20;99.90;;;;;;4995202;28;20510;-65
2023/08/26 05:41:38;;;;;;;7.30;6.35;;;14.60;99.90;;;;;;5011497;28;20049;-65
2023/08/26 05:44:05;;;;;;;7.97;6.35;;;14.70;99.90;;;;;;5011007;28;20049;-65
2023/08/26 05:46:31;;;;;;;8.90;5.95;;;14.90;99.90;;;;;;5007041;28;20582;-65
2023/08/26 05:48:57;;;;;;;9.95;5.60;;;14.90;99.90;;;;;;5010612;28;20144;-65
2023/08/26 05:51:23;;;;;;;6.07;5.22;;;15.60;99.90;;;;;;4994551;28;20151;-66
2023/08/26 05:53:49;;;;;;;8.15;4.97;;;15.50;99.90;;;;;;5010450;28;20038;-65
2023/08/26 05:56:14;;;;;;;6.32;4.70;;;15.90;99.90;;;;;;5013202;28;20342;-65
2023/08/26 05:59:18;;;;;;;7.75;4.03;;;16.30;99.90;;;;;;5021842;28;20049;-65
2023/08/26 06:01:44;;;;;;;5.97;3.67;;;16.30;99.90;;;;;;5021121;28;20136;-64
2023/08/26 06:04:10;;;;;;;4.18;3.10;;;16.50;99.90;;;;;;5021494;28;20061;-66
2023/08/26 06:06:36;;;;;;;5.70;3.40;;;16.90;99.90;;;;;;5025305;28;20053;-64
2023/08/26 06:09:02;;;;;;;3.80;2.80;;;16.80;99.90;;;;;;5024203;28;20842;-65
2023/08/26 06:11:28;;;;;;;5.95;3.20;;;17.10;99.90;;;;;;5007245;28;20349;-63
2023/08/26 06:13:53;;;;;;;4.40;2.90;;;17.00;99.90;;;;;;5023094;28;20053;-64
2023/08/26 06:16:20;;;;;;;5.47;3.13;;;16.70;99.90;;;;;;5023752;28;20579;-64
2023/08/26 06:18:49;;;;;;;6.15;3.42;;;16.40;99.90;;;;;;5024525;28;20041;-65
2023/08/26 06:21:15;;;;;;;5.72;3.53;;;16.30;99.90;;;;;;5024018;28;20044;-63
2023/08/26 06:23:43;;;;;;;5.43;2.67;;;16.50;99.90;;;;;;5025616;28;20049;-63
2023/08/26 06:26:10;;;;;;;5.53;2.92;;;16.30;99.90;;;;;;5023770;28;20116;-64
2023/08/26 06:28:37;;;;;;;7.43;3.13;;;16.30;99.90;;;;;;5024001;28;20197;-63
2023/08/26 06:31:03;;;;;;;3.97;2.95;;;16.10;99.90;;;;;;5023433;28;20053;-63
2023/08/26 06:33:29;;;;;;;5.47;3.25;;;15.90;99.90;;;;;;5020662;28;20052;-64
2023/08/26 06:35:54;;;;;;;3.47;3.05;;;15.90;99.90;;;;;;5021213;28;20044;-64
2023/08/26 06:38:20;;;;;;;4.78;2.90;;;15.90;99.90;;;;;;5022959;28;20030;-64
2023/08/26 06:40:54;;;;;;;7.72;3.63;;;15.80;99.90;;;;;;5024663;28;20041;-66
2023/08/26 06:43:19;;;;;;;7.18;3.50;;;16.20;99.90;;;;;;5026574;28;20561;-64
2023/08/26 06:45:45;;;;;;;5.45;3.55;;;15.80;99.90;;;;;;5008314;28;20049;-65
2023/08/26 06:48:11;;;;;;;6.57;3.63;;;15.90;99.90;;;;;;5008582;28;20045;-65
2023/08/26 06:50:36;;;;;;;6.60;3.88;;;16.20;99.90;;;;;;5023863;28;20041;-65
2023/08/26 06:53:02;;;;;;;5.03;3.80;;;16.20;99.90;;;;;;5023661;28;20093;-63
2023/08/26 06:55:28;;;;;;;4.75;3.55;;;16.30;99.90;;;;;;5005174;28;20034;-64
2023/08/26 06:57:53;;;;;;;3.90;3.40;;;16.10;99.90;;;;;;5007052;28;20045;-63
2023/08/26 07:00:19;;;;;;;7.30;3.85;;;16.50;99.90;;;;;;5006072;28;20365;-64
2023/08/26 07:02:48;;;;;;;7.30;3.60;;;16.50;99.90;;;;;;5023831;28;20491;-63
2023/08/26 07:05:15;;;;;;;7.47;3.20;;;16.50;99.90;;;;;;5027638;28;20110;-64
2023/08/26 07:07:41;;;;;;;5.75;3.47;;;16.40;99.90;;;;;;5009704;28;20040;-64
2023/08/26 07:10:07;;;;;;;3.33;2.85;;;16.70;99.90;;;;;;5024685;28;20094;-64
2023/08/26 07:12:33;;;;;;;3.33;2.72;;;16.40;99.90;;;;;;5025861;28;20212;-65
2023/08/26 07:14:58;;;;;;;3.80;2.95;;;16.30;99.90;;;;;;5024215;28;20033;-64
2023/08/26 07:17:24;;;;;;;5.00;2.15;;;16.20;99.90;;;;;;5007955;28;20440;-64
2023/08/26 07:19:50;;;;;;;5.60;3.15;;;16.30;99.90;;;;;;5009306;28;20602;-63
2023/08/26 07:22:54;;;;;;;4.00;2.72;;;16.40;99.90;;;;;;5042465;28;21319;-65
2023/08/26 07:25:20;;;;;;;3.97;1.90;;;16.40;99.90;;;;;;5000505;28;20032;-65
2023/08/26 07:27:45;;;;;;;4.03;1.90;;;16.30;99.90;;;;;;5009233;28;20041;-64
2023/08/26 07:30:12;;;;;;;3.60;1.80;;;16.40;99.90;;;;;;5027933;28;20106;-65
2023/08/26 07:32:38;;;;;;;3.75;1.60;;;16.30;99.90;;;;;;5026472;28;20115;-64
2023/08/26 07:35:05;;;;;;;4.97;1.63;;;16.40;99.90;;;;;;5010570;28;20116;-63
2023/08/26 07:37:30;;;;;;;5.30;1.95;;;16.40;99.90;;;;;;5009225;28;20037;-65
2023/08/26 07:40:00;;;;;;;3.85;1.50;;;16.40;99.90;;;;;;5026914;28;20039;-64
2023/08/26 07:42:27;;;;;;;7.88;2.05;;;16.60;99.90;;;;;;5026946;28;20041;-64
2023/08/26 07:44:55;;;;;;;4.53;2.00;;;16.50;64.20;;;;;;5024232;28;20415;-65
2023/08/26 07:47:21;;;;;;;6.15;2.00;;;16.70;23.00;;;;;;5043221;28;20056;-65
2023/08/26 07:49:46;;;;;;;4.65;2.00;;;16.80;13.90;;;;;;5008685;28;20445;-64
2023/08/26 07:52:13;;;;;;;2.58;1.73;;;16.70;1.00;;;;;;5042490;28;20533;-64
2023/08/26 07:54:39;;;;;;;4.28;2.22;;;16.80;60.80;;;;;;5043583;28;20044;-63
2023/08/26 07:57:04;;;;;;;4.28;1.83;;;17.00;1.00;;;;;;5009031;28;20053;-63
2023/08/26 07:59:30;;;;;;;7.82;2.10;;;17.00;1.00;;;;;;5009245;28;20048;-64
2023/08/26 08:02:14;;;;;;;3.22;1.73;;;16.90;1.00;;;;;;5009452;28;20040;-64
2023/08/26 08:04:40;;;;;;;2.78;1.70;;;16.90;99.90;;;;;;5041987;28;20064;-64
2023/08/26 08:07:06;;;;;;;4.85;2.00;;;17.10;99.90;;;;;;5009810;28;20057;-64
2023/08/26 08:09:31;;;;;;;4.93;1.83;;;17.10;99.90;;;;;;5026809;28;20048;-63
2023/08/26 08:11:57;;;;;;;3.65;1.60;;;17.40;1.00;;;;;;5025747;28;20077;-64
2023/08/26 08:14:23;;;;;;;4.40;1.60;;;17.80;99.90;;;;;;5009048;28;20497;-66
2023/08/26 08:16:48;;;;;;;3.42;2.05;;;18.50;99.90;;;;;;5026357;28;20080;-63
2023/08/26 08:19:14;;;;;;;6.00;2.63;;;18.50;99.90;;;;;;5027211;28;20029;-63
2023/08/26 08:21:40;;;;;;;5.78;2.80;;;18.50;99.90;;;;;;5010056;28;20045;-64
2023/08/26 08:24:05;;;;;;;8.25;4.38;;;19.00;99.90;;;;;;5044534;28;20044;-64
2023/08/26 08:26:32;;;;;;;7.05;3.83;;;19.20;99.90;;;;;;5025992;28;20056;-64
2023/08/26 08:28:59;;;;;;;7.15;4.20;;;19.70;99.90;;;;;;5043787;28;20148;-64
2023/08/26 08:31:25;;;;;;;6.60;5.30;;;20.10;84.20;;;;;;5009715;28;20053;-66
2023/08/26 08:33:50;;;;;;;9.27;6.20;;;20.40;51.70;;;;;;5025592;28;20316;-63
2023/08/26 08:36:16;;;;;;;9.82;8.25;;;20.60;13.40;;;;;;5009209;28;20131;-64
2023/08/26 08:38:42;;;;;;;9.55;8.60;;;20.20;99.90;;;;;;5009717;28;20074;-64
2023/08/26 08:41:28;;;;;;;12.75;11.38;;;20.40;1.00;;;;;;5025994;28;20518;-63
2023/08/26 08:44:00;;;;;;;12.48;10.98;;;20.30;99.90;;;;;;5026274;28;20114;-64
2023/08/26 08:46:26;;;;;;;13.20;11.65;;;20.20;1.00;;;;;;5044358;28;20083;-64
2023/08/26 08:48:52;;;;;;;14.77;13.38;;;20.00;1.00;;;;;;5027138;28;20114;-66
2023/08/26 08:51:20;;;;;;;16.65;14.93;;;19.80;1.00;;;;;;5026097;28;20045;-64
2023/08/26 08:53:47;;;;;;;16.92;15.05;;;19.50;1.00;;;;;;5043705;28;20593;-64
2023/08/26 08:56:17;;;;;;;17.33;15.52;;;19.20;1.00;;;;;;5027542;28;20351;-64
2023/08/26 08:58:51;;;;;;;17.73;15.88;;;18.60;1.00;;;;;;5047676;28;20629;-64
2023/08/26 09:01:23;;;;;;;17.73;15.93;;;18.50;1.00;;;;;;5047027;28;20527;-64
2023/08/26 09:03:49;;;;;;;16.30;14.60;;;18.70;1.00;;;;;;5028541;28;20068;-64
2023/08/26 09:06:17;;;;;;;19.20;14.90;;;19.00;1.00;;;;;;5029452;28;20499;-63
2023/08/26 09:08:44;;;;;;;16.13;14.63;;;19.60;1.00;;;;;;5029451;28;20052;-64
2023/08/26 09:11:11;;;;;;;15.60;13.70;;;20.30;1.00;;;;;;5029150;28;20049;-64
2023/08/26 09:13:38;;;;;;;15.05;13.52;;;20.70;99.90;;;;;;5029942;28;20045;-64
2023/08/26 09:16:04;;;;;;;15.48;14.07;;;20.50;99.90;;;;;;5047893;28;20122;-64
2023/08/26 09:18:30;;;;;;;15.98;14.05;;;20.30;99.90;;;;;;5029672;28;20211;-65
2023/08/26 09:20:56;;;;;;;15.98;14.40;;;20.20;99.90;;;;;;5029300;28;20045;-64
2023/08/26 09:23:21;;;;;;;16.15;14.55;;;20.10;99.90;;;;;;5029146;28;20246;-65
2023/08/26 09:25:57;;;;;;;14.90;13.50;;;20.00;99.90;;;;;;5046939;28;20048;-64
2023/08/26 09:28:23;;;;;;;14.93;12.93;;;20.00;99.90;;;;;;5047216;28;20668;-64
2023/08/26 09:31:06;;;;;;;14.52;13.05;;;20.50;99.90;;;;;;5004643;28;20361;-66
2023/08/26 09:33:32;;;;;;;13.85;12.65;;;20.70;99.90;;;;;;5045689;28;20053;-64
2023/08/26 09:35:58;;;;;;;16.17;13.77;;;20.40;99.90;;;;;;5028895;28;20449;-64
2023/08/26 09:38:25;;;;;;;14.60;12.82;;;20.70;99.90;;;;;;5029563;28;20045;-64
2023/08/26 09:41:00;;;;;;;15.52;13.30;;;20.70;99.90;;;;;;5047499;28;20037;-65
2023/08/26 09:43:26;;;;;;;12.95;11.65;;;20.80;99.90;;;;;;5029155;28;20721;-64
2023/08/26 09:45:59;;;;;;;13.95;11.45;;;21.10;99.90;;;;;;5013186;28;20044;-64
2023/08/26 09:48:24;;;;;;;;;;;21.30;63.70;;;;;;5029484;28;20067;-64
2023/08/26 09:50:50;;;;;;;13.40;12.18;;;21.00;1.00;;;;;;5047426;28;19920;-64
2023/08/26 09:53:30;;;;;;;11.75;10.32;;;20.90;99.90;;;;;;5029250;28;20040;-65
2023/08/26 09:55:59;;;;;;;9.70;8.80;;;21.50;99.90;;;;;;5046650;28;20032;-65
2023/08/26 09:58:26;;;;;;;10.02;9.02;;;22.10;77.80;;;;;;5028922;28;20037;-64
2023/08/26 10:01:13;;;;;;;9.63;8.70;;;21.90;1.00;;;;;;5028089;28;20131;-66
2023/08/26 10:03:44;;;;;;;8.40;7.30;;;21.90;99.90;;;;;;5028103;28;20067;-65
2023/08/26 10:06:13;;;;;;;6.35;5.75;;;21.70;99.90;;;;;;5013449;28;20076;-66
2023/08/26 10:08:41;;;;;;;8.48;6.43;;;21.80;99.90;;;;;;5014127;28;21137;-64
2023/08/26 10:11:09;;;;;;;7.82;5.82;;;22.20;1.00;;;;;;5029748;28;20123;-65
2023/08/26 10:13:36;;;;;;;7.35;4.47;;;22.70;1.00;;;;;;5029424;28;20045;-64
2023/08/26 10:16:06;;;;;;;6.68;3.95;;;22.70;1.00;;;;;;5047059;28;20049;-64
2023/08/26 10:18:43;;;;;;;4.90;4.00;;;23.00;1.00;;;;;;5046763;28;20049;-65
2023/08/26 10:21:12;;;;;;;5.97;4.32;;;23.30;1.00;;;;;;5029212;28;20067;-65
2023/08/26 10:23:39;;;;;;;7.40;4.45;;;23.50;8.20;;;;;;5030341;28;20099;-64
2023/08/26 10:26:09;;;;;;;6.72;4.55;;;22.90;53.40;;;;;;5031200;28;20048;-66
2023/08/26 10:28:36;;;;;;;4.90;4.05;;;22.70;62.40;;;;;;5029358;28;20033;-64
2023/08/26 10:31:09;;;;;;;8.45;3.97;;;22.20;49.10;;;;;;5012448;28;20057;-64
2023/08/26 10:33:57;;;;;;;6.63;3.30;;;22.00;30.70;;;;;;5028401;28;20342;-66
2023/08/26 10:36:23;;;;;;;4.93;3.53;;;22.00;37.70;;;;;;4997164;28;20541;-64
2023/08/26 10:38:59;;;;;;;8.70;3.80;;;22.20;31.80;;;;;;5029059;28;20040;-64
2023/08/26 10:41:25;;;;;;;5.82;3.42;;;22.40;38.20;;;;;;5046975;28;20041;-66
2023/08/26 10:43:55;;;;;;;5.57;3.30;;;22.30;39.60;;;;;;5012612;28;20040;-65
2023/08/26 10:46:37;;;;;;;5.68;3.70;;;21.70;16.90;;;;;;5012122;28;20044;-65
2023/08/26 10:49:04;;;;;;;7.13;3.60;;;21.00;25.20;;;;;;5046530;28;20391;-64
2023/08/26 10:51:44;;;;;;;6.82;3.95;;;20.70;63.30;;;;;;5027959;28;20080;-65
2023/08/26 10:54:11;;;;;;;8.05;3.83;;;20.30;65.50;;;;;;5025815;28;20119;-66
2023/08/26 10:56:39;;;;;;;6.82;4.43;;;19.80;92.00;;;;;;5024820;28;20152;-64
2023/08/26 10:59:06;;;;;;;6.32;4.03;;;19.50;99.60;;;;;;5024181;28;20092;-67
2023/08/26 11:01:36;;;;;;;3.47;1.98;;;19.20;99.90;;;;;;5025665;28;20582;-64
2023/08/26 11:04:04;;;;;;;5.55;1.05;;;18.60;99.90;;;;;;5011122;28;20535;-64
2023/08/26 11:06:38;;;;;;;8.70;1.95;;;17.60;99.90;;;;;;5005471;28;20525;-67
2023/08/26 11:09:05;;;;;;;10.25;1.92;;;16.10;99.90;;;;;;5031763;28;20041;-67
2023/08/26 11:11:32;;;;;;;5.35;0.80;;;15.10;99.90;;;;;;5032584;28;20074;-66
2023/08/26 11:13:58;;;;;;;3.20;0.40;;;14.20;99.90;;;;;;5014961;28;20037;-67
2023/08/26 11:16:24;;;;;;;2.15;0.20;;;13.70;99.90;;;;;;5012357;28;20059;-66
2023/08/26 11:18:53;;;;;;;1.38;0.20;;;13.40;99.90;;;;;;5027824;28;20047;-67
2023/08/26 11:21:20;;;;;;;2.05;0.20;;;13.20;99.90;;;;;;5028169;28;20036;-67
2023/08/26 11:23:47;;;;;;;1.52;0.38;;;13.10;99.90;;;;;;5029143;28;20372;-67
2023/08/26 11:26:20;;;;;;;0.80;0.40;;;13.30;99.90;;;;;;5029020;28;20049;-65
2023/08/26 11:28:48;;;;;;;2.43;0.20;;;13.60;99.90;;;;;;5029452;28;20033;-65
2023/08/26 11:31:14;;;;;;;1.15;0.40;;;14.10;99.90;;;;;;5046859;28;20044;-66
2023/08/26 11:33:40;;;;;;;1.38;0.30;;;14.60;99.90;;;;;;5048696;28;20067;-66
2023/08/26 11:36:06;;;;;;;1.48;0.20;;;15.10;99.90;;;;;;5030521;28;20037;-66
2023/08/26 11:38:35;;;;;;;1.85;0.30;;;15.60;99.90;;;;;;5030288;28;20047;-66
2023/08/26 11:44:48;;;;;;;1.67;0.20;;;16.80;99.90;;;;;;5046686;28;20082;-67
2023/08/26 11:47:14;;;;;;;0.57;0.20;;;17.00;99.90;;;;;;5027969;28;20527;-65
2023/08/26 11:49:40;;;;;;;1.00;0.28;;;17.00;99.90;;;;;;5028171;28;20119;-65
2023/08/26 11:52:06;;;;;;;1.42;0.20;;;17.20;99.90;;;;;;5027966;28;20454;-65
2023/08/26 11:54:32;;;;;;;0.60;0.20;;;17.20;99.90;;;;;;5043989;28;20053;-66
2023/08/26 11:57:00;;;;;;;1.98;0.30;;;17.60;99.90;;;;;;5008580;28;20364;-65
2023/08/26 11:59:25;;;;;;;2.42;0.40;;;18.50;99.90;;;;;;5026734;28;20057;-66
2023/08/26 12:02:17;;;;;;;0.85;0.30;;;18.60;99.90;;;;;;5028070;28;20462;-66
2023/08/26 12:04:42;;;;;;;1.85;0.50;;;18.70;99.90;;;;;;5028130;28;20071;-66
2023/08/26 12:07:09;;;;;;;3.08;0.95;;;18.50;99.90;;;;;;5046198;28;20037;-67
2023/08/26 12:09:35;;;;;;;3.33;1.23;;;18.80;99.90;;;;;;5012364;28;20056;-65
2023/08/26 12:12:05;;;;;;;3.75;1.10;;;19.00;99.90;;;;;;5028071;28;20049;-65
2023/08/26 12:14:31;;;;;;;2.55;1.10;;;18.70;99.90;;;;;;5028462;28;20613;-65
2023/08/26 12:17:04;;;;;;;3.35;1.50;;;18.70;99.90;;;;;;5027408;28;20044;-66
2023/08/26 12:19:34;;;;;;;4.43;1.67;;;18.90;99.90;;;;;;5012168;28;20150;-65
2023/08/26 12:22:00;;;;;;;5.93;1.90;;;19.30;99.90;;;;;;5028951;28;20064;-65
2023/08/26 12:24:26;;;;;;;4.03;1.85;;;19.10;99.90;;;;;;5045135;28;20482;-65
2023/08/26 12:26:53;;;;;;;3.90;2.28;;;19.80;99.90;;;;;;5046640;28;20059;-65
2023/08/26 12:29:18;;;;;;;5.07;2.67;;;19.00;99.90;;;;;;5027243;28;20148;-65
2023/08/26 12:31:47;;;;;;;4.28;2.40;;;18.30;99.90;;;;;;5028270;28;20041;-65
2023/08/26 12:34:13;;;;;;;6.20;2.65;;;18.20;99.90;;;;;;5031403;28;20044;-64
2023/08/26 12:36:45;;;;;;;4.15;3.33;;;18.30;99.90;;;;;;5031043;28;20462;-66
2023/08/26 12:39:11;;;;;;;5.75;3.40;;;18.10;99.90;;;;;;5033269;28;20522;-65
2023/08/26 12:41:37;;;;;;;7.45;4.00;;;18.00;99.90;;;;;;5017638;28;20562;-64
2023/08/26 12:44:03;;;;;;;7.93;3.85;;;17.50;99.90;;;;;;5032555;28;20045;-64
2023/08/26 12:46:28;;;;;;;5.68;3.92;;;17.50;99.90;;;;;;5016296;28;20106;-66